sensor_id;sensor_type;location;lat;lon;timestamp;P1;durP1;ratioP1;P2;durP2;ratioP2
6013;SDS011;3035;49.928;8.410;2023-01-19T00:00:10;9.20;;;4.97;;
6013;SDS011;3035;49.928;8.410;2023-01-19T00:02:40;8.50;;;5.57;;
6013;SDS011;3035;49.928;8.410;2023-01-19T00:05:09;8.43;;;5.13;;
6013;SDS011;3035;49.928;8.410;2023-01-19T00:07:37;12.43;;;6.60;;
6013;SDS011;3035;49.928;8.410;2023-01-19T00:10:06;13.63;;;5.50;;
6013;SDS011;3035;49.928;8.410;2023-01-19T00:12:35;9.13;;;5.70;;
6013;SDS011;3035;49.928;8.410;2023-01-19T00:15:04;12.87;;;7.30;;
6013;SDS011;3035;49.928;8.410;2023-01-19T00:17:34;12.67;;;6.13;;
6013;SDS011;3035;49.928;8.410;2023-01-19T00:20:02;12.33;;;6.30;;
6013;SDS011;3035;49.928;8.410;2023-01-19T00:22:32;9.90;;;5.47;;
6013;SDS011;3035;49.928;8.410;2023-01-19T00:25:00;8.03;;;5.60;;
6013;SDS011;3035;49.928;8.410;2023-01-19T00:27:30;12.00;;;5.00;;
6013;SDS011;3035;49.928;8.410;2023-01-19T00:29:58;16.60;;;6.77;;
6013;SDS011;3035;49.928;8.410;2023-01-19T00:32:27;7.70;;;5.60;;
6013;SDS011;3035;49.928;8.410;2023-01-19T00:34:55;11.07;;;6.10;;
6013;SDS011;3035;49.928;8.410;2023-01-19T00:37:24;15.93;;;6.53;;
6013;SDS011;3035;49.928;8.410;2023-01-19T00:39:52;7.90;;;5.63;;
6013;SDS011;3035;49.928;8.410;2023-01-19T00:42:20;10.67;;;5.63;;
6013;SDS011;3035;49.928;8.410;2023-01-19T00:44:55;14.00;;;6.90;;
6013;SDS011;3035;49.928;8.410;2023-01-19T00:47:24;7.40;;;5.70;;
6013;SDS011;3035;49.928;8.410;2023-01-19T00:49:53;9.67;;;4.47;;
6013;SDS011;3035;49.928;8.410;2023-01-19T00:52:22;9.97;;;5.03;;
6013;SDS011;3035;49.928;8.410;2023-01-19T00:54:51;9.50;;;5.90;;
6013;SDS011;3035;49.928;8.410;2023-01-19T00:57:20;14.10;;;5.70;;
6013;SDS011;3035;49.928;8.410;2023-01-19T00:59:48;4.50;;;4.03;;
6013;SDS011;3035;49.928;8.410;2023-01-19T01:02:17;9.67;;;5.30;;
6013;SDS011;3035;49.928;8.410;2023-01-19T01:04:46;10.80;;;5.90;;
6013;SDS011;3035;49.928;8.410;2023-01-19T01:07:14;12.90;;;5.93;;
6013;SDS011;3035;49.928;8.410;2023-01-19T01:09:42;11.40;;;5.50;;
6013;SDS011;3035;49.928;8.410;2023-01-19T01:12:11;11.77;;;6.10;;
6013;SDS011;3035;49.928;8.410;2023-01-19T01:14:39;11.03;;;6.30;;
6013;SDS011;3035;49.928;8.410;2023-01-19T01:17:07;12.10;;;6.10;;
6013;SDS011;3035;49.928;8.410;2023-01-19T01:19:36;10.53;;;5.90;;
6013;SDS011;3035;49.928;8.410;2023-01-19T01:22:05;13.03;;;5.10;;
6013;SDS011;3035;49.928;8.410;2023-01-19T01:24:33;11.90;;;5.80;;
6013;SDS011;3035;49.928;8.410;2023-01-19T01:27:02;9.63;;;5.20;;
6013;SDS011;3035;49.928;8.410;2023-01-19T01:29:31;11.63;;;5.30;;
6013;SDS011;3035;49.928;8.410;2023-01-19T01:32:00;12.70;;;6.33;;
6013;SDS011;3035;49.928;8.410;2023-01-19T01:34:28;8.97;;;5.07;;
6013;SDS011;3035;49.928;8.410;2023-01-19T01:36:57;12.10;;;5.97;;
6013;SDS011;3035;49.928;8.410;2023-01-19T01:39:25;10.83;;;6.00;;
6013;SDS011;3035;49.928;8.410;2023-01-19T01:41:54;8.43;;;5.10;;
6013;SDS011;3035;49.928;8.410;2023-01-19T01:47:16;12.70;;;5.73;;
6013;SDS011;3035;49.928;8.410;2023-01-19T01:50:02;8.23;;;5.47;;
6013;SDS011;3035;49.928;8.410;2023-01-19T01:52:48;12.33;;;6.47;;
6013;SDS011;3035;49.928;8.410;2023-01-19T01:55:17;7.10;;;5.20;;
6013;SDS011;3035;49.928;8.410;2023-01-19T01:57:45;10.27;;;5.80;;
6013;SDS011;3035;49.928;8.410;2023-01-19T02:00:14;12.83;;;5.60;;
6013;SDS011;3035;49.928;8.410;2023-01-19T02:02:44;15.70;;;6.57;;
6013;SDS011;3035;49.928;8.410;2023-01-19T02:05:21;13.40;;;7.10;;
6013;SDS011;3035;49.928;8.410;2023-01-19T02:07:53;11.40;;;6.70;;
6013;SDS011;3035;49.928;8.410;2023-01-19T02:10:36;19.93;;;6.40;;
6013;SDS011;3035;49.928;8.410;2023-01-19T02:13:11;14.53;;;6.37;;
6013;SDS011;3035;49.928;8.410;2023-01-19T02:15:51;11.17;;;6.10;;
6013;SDS011;3035;49.928;8.410;2023-01-19T02:18:20;11.13;;;6.37;;
6013;SDS011;3035;49.928;8.410;2023-01-19T02:21:05;12.10;;;6.23;;
6013;SDS011;3035;49.928;8.410;2023-01-19T02:23:44;13.00;;;7.30;;
6013;SDS011;3035;49.928;8.410;2023-01-19T02:26:15;15.47;;;6.77;;
6013;SDS011;3035;49.928;8.410;2023-01-19T02:28:43;9.20;;;5.90;;
6013;SDS011;3035;49.928;8.410;2023-01-19T02:31:10;8.30;;;5.13;;
6013;SDS011;3035;49.928;8.410;2023-01-19T02:33:38;14.13;;;6.73;;
6013;SDS011;3035;49.928;8.410;2023-01-19T02:36:06;11.43;;;5.70;;
6013;SDS011;3035;49.928;8.410;2023-01-19T02:38:36;7.73;;;5.13;;
6013;SDS011;3035;49.928;8.410;2023-01-19T02:41:05;9.07;;;5.57;;
6013;SDS011;3035;49.928;8.410;2023-01-19T02:43:34;10.87;;;5.63;;
6013;SDS011;3035;49.928;8.410;2023-01-19T02:46:02;12.57;;;6.17;;
6013;SDS011;3035;49.928;8.410;2023-01-19T02:48:30;12.43;;;6.50;;
6013;SDS011;3035;49.928;8.410;2023-01-19T02:50:58;9.63;;;6.40;;
6013;SDS011;3035;49.928;8.410;2023-01-19T02:53:37;11.57;;;6.57;;
6013;SDS011;3035;49.928;8.410;2023-01-19T02:56:34;11.23;;;5.50;;
6013;SDS011;3035;49.928;8.410;2023-01-19T02:59:18;9.03;;;6.30;;
6013;SDS011;3035;49.928;8.410;2023-01-19T03:01:57;11.30;;;5.97;;
6013;SDS011;3035;49.928;8.410;2023-01-19T03:04:46;10.17;;;6.30;;
6013;SDS011;3035;49.928;8.410;2023-01-19T03:07:38;11.97;;;6.00;;
6013;SDS011;3035;49.928;8.410;2023-01-19T03:10:45;10.83;;;6.37;;
6013;SDS011;3035;49.928;8.410;2023-01-19T03:13:29;12.80;;;6.47;;
6013;SDS011;3035;49.928;8.410;2023-01-19T03:16:12;16.50;;;6.70;;
6013;SDS011;3035;49.928;8.410;2023-01-19T03:18:48;10.37;;;6.10;;
6013;SDS011;3035;49.928;8.410;2023-01-19T03:21:14;10.83;;;5.23;;
6013;SDS011;3035;49.928;8.410;2023-01-19T03:23:42;13.80;;;6.40;;
6013;SDS011;3035;49.928;8.410;2023-01-19T03:26:12;13.60;;;6.73;;
6013;SDS011;3035;49.928;8.410;2023-01-19T03:28:39;9.90;;;6.17;;
6013;SDS011;3035;49.928;8.410;2023-01-19T03:31:11;11.27;;;5.90;;
6013;SDS011;3035;49.928;8.410;2023-01-19T03:33:39;11.17;;;6.10;;
6013;SDS011;3035;49.928;8.410;2023-01-19T03:36:10;9.00;;;5.70;;
6013;SDS011;3035;49.928;8.410;2023-01-19T03:38:37;14.53;;;6.87;;
6013;SDS011;3035;49.928;8.410;2023-01-19T03:41:08;11.67;;;6.07;;
6013;SDS011;3035;49.928;8.410;2023-01-19T03:43:35;11.53;;;6.20;;
6013;SDS011;3035;49.928;8.410;2023-01-19T03:46:03;12.83;;;7.40;;
6013;SDS011;3035;49.928;8.410;2023-01-19T03:48:32;13.90;;;7.07;;
6013;SDS011;3035;49.928;8.410;2023-01-19T03:51:03;14.30;;;6.50;;
6013;SDS011;3035;49.928;8.410;2023-01-19T03:53:31;20.67;;;6.43;;
6013;SDS011;3035;49.928;8.410;2023-01-19T03:55:59;7.40;;;5.37;;
6013;SDS011;3035;49.928;8.410;2023-01-19T03:58:28;9.77;;;6.40;;
6013;SDS011;3035;49.928;8.410;2023-01-19T04:00:56;11.67;;;6.00;;
6013;SDS011;3035;49.928;8.410;2023-01-19T04:03:25;12.07;;;6.40;;
6013;SDS011;3035;49.928;8.410;2023-01-19T04:05:55;13.17;;;6.43;;
6013;SDS011;3035;49.928;8.410;2023-01-19T04:08:22;15.10;;;7.10;;
6013;SDS011;3035;49.928;8.410;2023-01-19T04:10:50;15.60;;;7.23;;
6013;SDS011;3035;49.928;8.410;2023-01-19T04:13:18;14.00;;;6.97;;
6013;SDS011;3035;49.928;8.410;2023-01-19T04:15:46;14.57;;;7.10;;
6013;SDS011;3035;49.928;8.410;2023-01-19T04:18:14;10.53;;;6.63;;
6013;SDS011;3035;49.928;8.410;2023-01-19T04:20:43;8.67;;;5.93;;
6013;SDS011;3035;49.928;8.410;2023-01-19T04:23:11;11.80;;;6.23;;
6013;SDS011;3035;49.928;8.410;2023-01-19T04:25:39;11.63;;;6.70;;
6013;SDS011;3035;49.928;8.410;2023-01-19T04:28:07;9.73;;;6.57;;
6013;SDS011;3035;49.928;8.410;2023-01-19T04:30:37;9.77;;;6.87;;
6013;SDS011;3035;49.928;8.410;2023-01-19T04:33:05;12.43;;;5.77;;
6013;SDS011;3035;49.928;8.410;2023-01-19T04:35:33;11.10;;;6.93;;
6013;SDS011;3035;49.928;8.410;2023-01-19T04:38:02;11.90;;;6.30;;
6013;SDS011;3035;49.928;8.410;2023-01-19T04:40:30;15.00;;;7.30;;
6013;SDS011;3035;49.928;8.410;2023-01-19T04:42:59;10.47;;;7.10;;
6013;SDS011;3035;49.928;8.410;2023-01-19T04:45:28;11.90;;;6.70;;
6013;SDS011;3035;49.928;8.410;2023-01-19T04:47:56;14.43;;;7.10;;
6013;SDS011;3035;49.928;8.410;2023-01-19T04:50:25;10.87;;;7.10;;
6013;SDS011;3035;49.928;8.410;2023-01-19T04:52:53;11.43;;;6.43;;
6013;SDS011;3035;49.928;8.410;2023-01-19T04:55:22;20.90;;;8.20;;
6013;SDS011;3035;49.928;8.410;2023-01-19T04:57:50;13.50;;;7.80;;
6013;SDS011;3035;49.928;8.410;2023-01-19T05:00:18;15.63;;;8.60;;
6013;SDS011;3035;49.928;8.410;2023-01-19T05:02:47;14.57;;;8.30;;
6013;SDS011;3035;49.928;8.410;2023-01-19T05:05:15;16.47;;;8.40;;
6013;SDS011;3035;49.928;8.410;2023-01-19T05:07:43;12.83;;;7.80;;
6013;SDS011;3035;49.928;8.410;2023-01-19T05:10:12;13.60;;;7.57;;
6013;SDS011;3035;49.928;8.410;2023-01-19T05:12:40;17.03;;;8.47;;
6013;SDS011;3035;49.928;8.410;2023-01-19T05:15:09;18.60;;;8.57;;
6013;SDS011;3035;49.928;8.410;2023-01-19T05:17:37;15.20;;;7.13;;
6013;SDS011;3035;49.928;8.410;2023-01-19T05:20:05;17.07;;;8.70;;
6013;SDS011;3035;49.928;8.410;2023-01-19T05:22:39;14.60;;;8.50;;
6013;SDS011;3035;49.928;8.410;2023-01-19T05:25:07;14.00;;;8.20;;
6013;SDS011;3035;49.928;8.410;2023-01-19T05:27:36;15.70;;;8.40;;
6013;SDS011;3035;49.928;8.410;2023-01-19T05:30:04;18.53;;;9.57;;
6013;SDS011;3035;49.928;8.410;2023-01-19T05:32:33;14.93;;;9.10;;
6013;SDS011;3035;49.928;8.410;2023-01-19T05:35:01;17.00;;;9.20;;
6013;SDS011;3035;49.928;8.410;2023-01-19T05:37:29;16.10;;;9.50;;
6013;SDS011;3035;49.928;8.410;2023-01-19T05:39:58;15.77;;;8.57;;
6013;SDS011;3035;49.928;8.410;2023-01-19T05:42:26;14.10;;;8.80;;
6013;SDS011;3035;49.928;8.410;2023-01-19T05:44:54;17.57;;;8.87;;
6013;SDS011;3035;49.928;8.410;2023-01-19T05:47:22;15.00;;;8.90;;
6013;SDS011;3035;49.928;8.410;2023-01-19T05:49:50;18.57;;;9.37;;
6013;SDS011;3035;49.928;8.410;2023-01-19T05:52:20;15.43;;;8.27;;
6013;SDS011;3035;49.928;8.410;2023-01-19T05:54:48;15.90;;;8.80;;
6013;SDS011;3035;49.928;8.410;2023-01-19T05:57:16;18.30;;;8.80;;
6013;SDS011;3035;49.928;8.410;2023-01-19T05:59:45;33.93;;;8.90;;
6013;SDS011;3035;49.928;8.410;2023-01-19T06:02:13;16.13;;;9.13;;
6013;SDS011;3035;49.928;8.410;2023-01-19T06:04:42;11.80;;;8.37;;
6013;SDS011;3035;49.928;8.410;2023-01-19T06:07:10;15.40;;;8.90;;
6013;SDS011;3035;49.928;8.410;2023-01-19T06:09:38;22.30;;;9.10;;
6013;SDS011;3035;49.928;8.410;2023-01-19T06:12:07;16.87;;;7.53;;
6013;SDS011;3035;49.928;8.410;2023-01-19T06:14:35;15.03;;;8.70;;
6013;SDS011;3035;49.928;8.410;2023-01-19T06:17:04;13.07;;;8.17;;
6013;SDS011;3035;49.928;8.410;2023-01-19T06:19:32;13.03;;;7.93;;
6013;SDS011;3035;49.928;8.410;2023-01-19T06:22:00;13.40;;;7.87;;
6013;SDS011;3035;49.928;8.410;2023-01-19T06:24:28;18.00;;;9.80;;
6013;SDS011;3035;49.928;8.410;2023-01-19T06:26:57;14.60;;;8.57;;
6013;SDS011;3035;49.928;8.410;2023-01-19T06:29:26;13.40;;;7.93;;
6013;SDS011;3035;49.928;8.410;2023-01-19T06:31:54;15.60;;;7.83;;
6013;SDS011;3035;49.928;8.410;2023-01-19T06:34:22;15.90;;;8.73;;
6013;SDS011;3035;49.928;8.410;2023-01-19T06:36:51;13.40;;;8.93;;
6013;SDS011;3035;49.928;8.410;2023-01-19T06:39:19;21.77;;;8.20;;
6013;SDS011;3035;49.928;8.410;2023-01-19T06:41:48;14.80;;;7.80;;
6013;SDS011;3035;49.928;8.410;2023-01-19T06:44:16;13.20;;;8.73;;
6013;SDS011;3035;49.928;8.410;2023-01-19T06:46:45;12.60;;;7.50;;
6013;SDS011;3035;49.928;8.410;2023-01-19T06:49:13;16.90;;;8.13;;
6013;SDS011;3035;49.928;8.410;2023-01-19T06:51:42;23.30;;;8.30;;
6013;SDS011;3035;49.928;8.410;2023-01-19T06:54:11;14.57;;;7.57;;
6013;SDS011;3035;49.928;8.410;2023-01-19T06:56:39;14.43;;;7.73;;
6013;SDS011;3035;49.928;8.410;2023-01-19T06:59:07;12.83;;;8.17;;
6013;SDS011;3035;49.928;8.410;2023-01-19T07:01:36;13.30;;;7.33;;
6013;SDS011;3035;49.928;8.410;2023-01-19T07:04:04;14.70;;;8.53;;
6013;SDS011;3035;49.928;8.410;2023-01-19T07:06:32;13.30;;;8.43;;
6013;SDS011;3035;49.928;8.410;2023-01-19T07:09:00;14.63;;;8.30;;
6013;SDS011;3035;49.928;8.410;2023-01-19T07:11:28;12.60;;;7.37;;
6013;SDS011;3035;49.928;8.410;2023-01-19T07:13:57;15.60;;;8.07;;
6013;SDS011;3035;49.928;8.410;2023-01-19T07:16:25;19.00;;;8.23;;
6013;SDS011;3035;49.928;8.410;2023-01-19T07:18:54;12.40;;;7.40;;
6013;SDS011;3035;49.928;8.410;2023-01-19T07:21:22;18.53;;;7.60;;
6013;SDS011;3035;49.928;8.410;2023-01-19T07:23:51;13.07;;;8.10;;
6013;SDS011;3035;49.928;8.410;2023-01-19T07:26:19;12.53;;;6.80;;
6013;SDS011;3035;49.928;8.410;2023-01-19T07:28:47;10.80;;;7.80;;
6013;SDS011;3035;49.928;8.410;2023-01-19T07:31:15;13.77;;;7.67;;
6013;SDS011;3035;49.928;8.410;2023-01-19T07:33:44;13.07;;;7.97;;
6013;SDS011;3035;49.928;8.410;2023-01-19T07:36:13;14.63;;;7.80;;
6013;SDS011;3035;49.928;8.410;2023-01-19T07:38:40;14.07;;;7.83;;
6013;SDS011;3035;49.928;8.410;2023-01-19T07:41:09;13.90;;;7.50;;
6013;SDS011;3035;49.928;8.410;2023-01-19T07:43:38;15.97;;;7.40;;
6013;SDS011;3035;49.928;8.410;2023-01-19T07:46:06;12.60;;;7.20;;
6013;SDS011;3035;49.928;8.410;2023-01-19T07:48:35;18.60;;;8.70;;
6013;SDS011;3035;49.928;8.410;2023-01-19T07:51:03;14.60;;;7.93;;
6013;SDS011;3035;49.928;8.410;2023-01-19T07:53:31;13.90;;;7.33;;
6013;SDS011;3035;49.928;8.410;2023-01-19T07:56:00;11.50;;;7.17;;
6013;SDS011;3035;49.928;8.410;2023-01-19T07:58:29;18.10;;;8.87;;
6013;SDS011;3035;49.928;8.410;2023-01-19T08:00:58;13.77;;;9.07;;
6013;SDS011;3035;49.928;8.410;2023-01-19T08:03:26;17.80;;;8.87;;
6013;SDS011;3035;49.928;8.410;2023-01-19T08:05:54;13.93;;;8.30;;
6013;SDS011;3035;49.928;8.410;2023-01-19T08:08:23;14.60;;;8.90;;
6013;SDS011;3035;49.928;8.410;2023-01-19T08:10:51;15.90;;;8.17;;
6013;SDS011;3035;49.928;8.410;2023-01-19T08:13:19;16.87;;;9.13;;
6013;SDS011;3035;49.928;8.410;2023-01-19T08:15:48;16.87;;;9.17;;
6013;SDS011;3035;49.928;8.410;2023-01-19T08:18:16;16.83;;;8.00;;
6013;SDS011;3035;49.928;8.410;2023-01-19T08:20:44;13.63;;;8.80;;
6013;SDS011;3035;49.928;8.410;2023-01-19T08:23:13;15.20;;;9.10;;
6013;SDS011;3035;49.928;8.410;2023-01-19T08:25:41;15.43;;;9.20;;
6013;SDS011;3035;49.928;8.410;2023-01-19T08:28:12;13.63;;;8.57;;
6013;SDS011;3035;49.928;8.410;2023-01-19T08:30:39;16.87;;;9.20;;
6013;SDS011;3035;49.928;8.410;2023-01-19T08:33:07;15.47;;;9.50;;
6013;SDS011;3035;49.928;8.410;2023-01-19T08:35:36;15.80;;;8.27;;
6013;SDS011;3035;49.928;8.410;2023-01-19T08:38:04;19.00;;;9.33;;
6013;SDS011;3035;49.928;8.410;2023-01-19T08:40:34;14.03;;;9.30;;
6013;SDS011;3035;49.928;8.410;2023-01-19T08:43:02;12.67;;;8.80;;
6013;SDS011;3035;49.928;8.410;2023-01-19T08:45:31;16.07;;;9.53;;
6013;SDS011;3035;49.928;8.410;2023-01-19T08:48:01;14.73;;;8.10;;
6013;SDS011;3035;49.928;8.410;2023-01-19T08:50:29;19.40;;;9.17;;
6013;SDS011;3035;49.928;8.410;2023-01-19T08:52:57;17.20;;;8.63;;
6013;SDS011;3035;49.928;8.410;2023-01-19T08:55:26;13.60;;;9.00;;
6013;SDS011;3035;49.928;8.410;2023-01-19T08:57:55;11.53;;;8.23;;
6013;SDS011;3035;49.928;8.410;2023-01-19T09:00:24;17.40;;;10.03;;
6013;SDS011;3035;49.928;8.410;2023-01-19T09:02:52;12.57;;;8.40;;
6013;SDS011;3035;49.928;8.410;2023-01-19T09:05:20;15.07;;;8.47;;
6013;SDS011;3035;49.928;8.410;2023-01-19T09:07:49;13.97;;;9.10;;
6013;SDS011;3035;49.928;8.410;2023-01-19T09:10:18;14.70;;;8.80;;
6013;SDS011;3035;49.928;8.410;2023-01-19T09:12:46;15.87;;;8.90;;
6013;SDS011;3035;49.928;8.410;2023-01-19T09:15:15;13.30;;;8.70;;
6013;SDS011;3035;49.928;8.410;2023-01-19T09:17:43;14.60;;;8.77;;
6013;SDS011;3035;49.928;8.410;2023-01-19T09:20:11;16.00;;;9.83;;
6013;SDS011;3035;49.928;8.410;2023-01-19T09:22:40;14.70;;;8.90;;
6013;SDS011;3035;49.928;8.410;2023-01-19T09:25:08;13.57;;;8.80;;
6013;SDS011;3035;49.928;8.410;2023-01-19T09:27:36;18.37;;;9.57;;
6013;SDS011;3035;49.928;8.410;2023-01-19T09:30:05;17.80;;;8.37;;
6013;SDS011;3035;49.928;8.410;2023-01-19T09:32:35;12.13;;;8.13;;
6013;SDS011;3035;49.928;8.410;2023-01-19T09:35:04;17.73;;;8.97;;
6013;SDS011;3035;49.928;8.410;2023-01-19T09:37:32;13.77;;;8.30;;
6013;SDS011;3035;49.928;8.410;2023-01-19T09:40:01;17.43;;;9.20;;
6013;SDS011;3035;49.928;8.410;2023-01-19T09:42:35;13.80;;;8.07;;
6013;SDS011;3035;49.928;8.410;2023-01-19T09:48:04;11.87;;;7.80;;
6013;SDS011;3035;49.928;8.410;2023-01-19T09:50:33;13.87;;;8.47;;
6013;SDS011;3035;49.928;8.410;2023-01-19T09:53:02;13.63;;;7.70;;
6013;SDS011;3035;49.928;8.410;2023-01-19T09:55:30;15.10;;;7.97;;
6013;SDS011;3035;49.928;8.410;2023-01-19T09:57:59;12.50;;;7.40;;
6013;SDS011;3035;49.928;8.410;2023-01-19T10:00:27;11.53;;;7.37;;
6013;SDS011;3035;49.928;8.410;2023-01-19T10:02:58;14.13;;;7.20;;
6013;SDS011;3035;49.928;8.410;2023-01-19T10:05:36;9.50;;;7.43;;
6013;SDS011;3035;49.928;8.410;2023-01-19T10:08:18;13.47;;;7.60;;
6013;SDS011;3035;49.928;8.410;2023-01-19T10:10:53;10.33;;;5.70;;
6013;SDS011;3035;49.928;8.410;2023-01-19T10:13:24;9.57;;;6.50;;
6013;SDS011;3035;49.928;8.410;2023-01-19T10:16:02;11.47;;;6.80;;
6013;SDS011;3035;49.928;8.410;2023-01-19T10:18:38;7.87;;;6.23;;
6013;SDS011;3035;49.928;8.410;2023-01-19T10:21:14;7.60;;;6.07;;
6013;SDS011;3035;49.928;8.410;2023-01-19T10:23:46;8.80;;;6.10;;
6013;SDS011;3035;49.928;8.410;2023-01-19T10:26:24;10.17;;;6.63;;
6013;SDS011;3035;49.928;8.410;2023-01-19T10:29:05;9.33;;;6.30;;
6013;SDS011;3035;49.928;8.410;2023-01-19T10:31:34;11.00;;;6.00;;
6013;SDS011;3035;49.928;8.410;2023-01-19T10:34:01;8.50;;;5.40;;
6013;SDS011;3035;49.928;8.410;2023-01-19T10:36:34;9.30;;;5.70;;
6013;SDS011;3035;49.928;8.410;2023-01-19T10:39:03;8.70;;;6.00;;
6013;SDS011;3035;49.928;8.410;2023-01-19T10:46:51;6.20;;;4.83;;
6013;SDS011;3035;49.928;8.410;2023-01-19T10:49:23;11.70;;;6.23;;
6013;SDS011;3035;49.928;8.410;2023-01-19T10:52:06;9.30;;;5.60;;
6013;SDS011;3035;49.928;8.410;2023-01-19T10:54:35;9.57;;;5.33;;
6013;SDS011;3035;49.928;8.410;2023-01-19T10:57:04;8.97;;;5.27;;
6013;SDS011;3035;49.928;8.410;2023-01-19T10:59:32;7.97;;;5.20;;
6013;SDS011;3035;49.928;8.410;2023-01-19T11:04:45;7.30;;;5.03;;
6013;SDS011;3035;49.928;8.410;2023-01-19T11:07:19;5.73;;;4.40;;
6013;SDS011;3035;49.928;8.410;2023-01-19T11:09:49;6.80;;;4.57;;
6013;SDS011;3035;49.928;8.410;2023-01-19T11:12:19;6.60;;;4.77;;
6013;SDS011;3035;49.928;8.410;2023-01-19T11:14:48;7.63;;;5.33;;
6013;SDS011;3035;49.928;8.410;2023-01-19T11:17:20;5.83;;;4.17;;
6013;SDS011;3035;49.928;8.410;2023-01-19T11:19:53;9.93;;;4.77;;
6013;SDS011;3035;49.928;8.410;2023-01-19T11:22:25;7.87;;;5.40;;
6013;SDS011;3035;49.928;8.410;2023-01-19T11:24:56;8.57;;;4.77;;
6013;SDS011;3035;49.928;8.410;2023-01-19T11:27:25;7.73;;;4.20;;
6013;SDS011;3035;49.928;8.410;2023-01-19T11:30:02;7.70;;;5.20;;
6013;SDS011;3035;49.928;8.410;2023-01-19T11:32:29;5.40;;;4.30;;
6013;SDS011;3035;49.928;8.410;2023-01-19T11:34:57;7.30;;;4.57;;
6013;SDS011;3035;49.928;8.410;2023-01-19T11:37:27;4.87;;;3.63;;
6013;SDS011;3035;49.928;8.410;2023-01-19T11:39:57;9.53;;;3.87;;
6013;SDS011;3035;49.928;8.410;2023-01-19T11:42:24;4.53;;;4.10;;
6013;SDS011;3035;49.928;8.410;2023-01-19T11:44:57;12.27;;;4.20;;
6013;SDS011;3035;49.928;8.410;2023-01-19T11:47:24;6.00;;;4.10;;
6013;SDS011;3035;49.928;8.410;2023-01-19T11:50:06;14.20;;;4.50;;
6013;SDS011;3035;49.928;8.410;2023-01-19T11:52:45;5.00;;;3.80;;
6013;SDS011;3035;49.928;8.410;2023-01-19T11:55:16;3.73;;;3.13;;
6013;SDS011;3035;49.928;8.410;2023-01-19T11:57:46;7.87;;;4.83;;
6013;SDS011;3035;49.928;8.410;2023-01-19T12:00:25;8.03;;;4.17;;
6013;SDS011;3035;49.928;8.410;2023-01-19T12:02:59;4.80;;;3.70;;
6013;SDS011;3035;49.928;8.410;2023-01-19T12:05:31;10.63;;;3.77;;
6013;SDS011;3035;49.928;8.410;2023-01-19T12:07:59;3.40;;;3.10;;
6013;SDS011;3035;49.928;8.410;2023-01-19T12:10:28;5.40;;;3.77;;
6013;SDS011;3035;49.928;8.410;2023-01-19T12:12:56;3.80;;;3.40;;
6013;SDS011;3035;49.928;8.410;2023-01-19T12:15:33;3.97;;;2.80;;
6013;SDS011;3035;49.928;8.410;2023-01-19T12:18:03;6.13;;;3.90;;
6013;SDS011;3035;49.928;8.410;2023-01-19T12:20:37;12.23;;;5.70;;
6013;SDS011;3035;49.928;8.410;2023-01-19T12:23:17;5.80;;;3.57;;
6013;SDS011;3035;49.928;8.410;2023-01-19T12:26:07;3.90;;;3.43;;
6013;SDS011;3035;49.928;8.410;2023-01-19T12:28:42;5.10;;;3.47;;
6013;SDS011;3035;49.928;8.410;2023-01-19T12:31:14;6.40;;;3.63;;
6013;SDS011;3035;49.928;8.410;2023-01-19T12:33:44;16.97;;;4.40;;
6013;SDS011;3035;49.928;8.410;2023-01-19T12:39:08;6.20;;;3.77;;
6013;SDS011;3035;49.928;8.410;2023-01-19T12:41:40;4.13;;;3.20;;
6013;SDS011;3035;49.928;8.410;2023-01-19T12:44:19;7.30;;;3.60;;
6013;SDS011;3035;49.928;8.410;2023-01-19T12:46:49;8.23;;;3.57;;
6013;SDS011;3035;49.928;8.410;2023-01-19T12:55:05;6.30;;;3.63;;
6013;SDS011;3035;49.928;8.410;2023-01-19T12:57:57;3.67;;;3.07;;
6013;SDS011;3035;49.928;8.410;2023-01-19T13:00:44;9.20;;;3.97;;
6013;SDS011;3035;49.928;8.410;2023-01-19T13:06:28;4.50;;;3.63;;
6013;SDS011;3035;49.928;8.410;2023-01-19T13:08:55;6.20;;;3.17;;
6013;SDS011;3035;49.928;8.410;2023-01-19T13:11:23;6.03;;;3.53;;
6013;SDS011;3035;49.928;8.410;2023-01-19T13:16:51;5.80;;;3.33;;
6013;SDS011;3035;49.928;8.410;2023-01-19T13:19:20;5.40;;;3.83;;
6013;SDS011;3035;49.928;8.410;2023-01-19T13:21:48;8.77;;;4.40;;
6013;SDS011;3035;49.928;8.410;2023-01-19T13:24:18;7.93;;;4.03;;
6013;SDS011;3035;49.928;8.410;2023-01-19T13:26:52;7.23;;;3.63;;
6013;SDS011;3035;49.928;8.410;2023-01-19T13:29:27;4.03;;;3.37;;
6013;SDS011;3035;49.928;8.410;2023-01-19T13:31:59;6.53;;;3.67;;
6013;SDS011;3035;49.928;8.410;2023-01-19T13:34:42;5.97;;;3.73;;
6013;SDS011;3035;49.928;8.410;2023-01-19T13:37:11;6.53;;;3.47;;
6013;SDS011;3035;49.928;8.410;2023-01-19T13:39:35;6.53;;;3.53;;
6013;SDS011;3035;49.928;8.410;2023-01-19T13:42:04;13.30;;;4.03;;
6013;SDS011;3035;49.928;8.410;2023-01-19T13:44:36;11.03;;;4.03;;
6013;SDS011;3035;49.928;8.410;2023-01-19T13:47:05;5.87;;;3.53;;
6013;SDS011;3035;49.928;8.410;2023-01-19T13:49:35;9.23;;;3.90;;
6013;SDS011;3035;49.928;8.410;2023-01-19T13:54:54;6.10;;;4.20;;
6013;SDS011;3035;49.928;8.410;2023-01-19T13:57:26;6.87;;;4.27;;
6013;SDS011;3035;49.928;8.410;2023-01-19T14:02:59;6.03;;;4.37;;
6013;SDS011;3035;49.928;8.410;2023-01-19T14:05:44;8.13;;;4.90;;
6013;SDS011;3035;49.928;8.410;2023-01-19T14:08:13;12.60;;;5.67;;
6013;SDS011;3035;49.928;8.410;2023-01-19T14:10:43;8.63;;;5.60;;
6013;SDS011;3035;49.928;8.410;2023-01-19T14:13:20;13.37;;;5.00;;
6013;SDS011;3035;49.928;8.410;2023-01-19T14:15:49;6.60;;;3.47;;
6013;SDS011;3035;49.928;8.410;2023-01-19T14:21:04;7.30;;;3.93;;
6013;SDS011;3035;49.928;8.410;2023-01-19T14:23:36;5.13;;;4.30;;
6013;SDS011;3035;49.928;8.410;2023-01-19T14:29:13;9.07;;;4.10;;
6013;SDS011;3035;49.928;8.410;2023-01-19T14:32:11;4.47;;;3.80;;
6013;SDS011;3035;49.928;8.410;2023-01-19T14:34:47;7.33;;;4.23;;
6013;SDS011;3035;49.928;8.410;2023-01-19T14:37:34;6.93;;;4.13;;
6013;SDS011;3035;49.928;8.410;2023-01-19T14:42:52;4.40;;;3.23;;
6013;SDS011;3035;49.928;8.410;2023-01-19T14:45:21;8.50;;;4.17;;
6013;SDS011;3035;49.928;8.410;2023-01-19T14:47:57;5.80;;;4.00;;
6013;SDS011;3035;49.928;8.410;2023-01-19T14:50:33;10.93;;;4.30;;
6013;SDS011;3035;49.928;8.410;2023-01-19T14:53:01;4.67;;;3.93;;
6013;SDS011;3035;49.928;8.410;2023-01-19T14:55:32;5.23;;;4.20;;
6013;SDS011;3035;49.928;8.410;2023-01-19T14:58:07;13.77;;;4.20;;
6013;SDS011;3035;49.928;8.410;2023-01-19T15:00:35;6.83;;;4.17;;
6013;SDS011;3035;49.928;8.410;2023-01-19T15:03:03;9.97;;;4.60;;
6013;SDS011;3035;49.928;8.410;2023-01-19T15:05:32;4.93;;;3.97;;
6013;SDS011;3035;49.928;8.410;2023-01-19T15:08:01;9.17;;;4.23;;
6013;SDS011;3035;49.928;8.410;2023-01-19T15:10:29;10.23;;;5.27;;
6013;SDS011;3035;49.928;8.410;2023-01-19T15:12:58;8.40;;;4.50;;
6013;SDS011;3035;49.928;8.410;2023-01-19T15:15:28;8.70;;;5.47;;
6013;SDS011;3035;49.928;8.410;2023-01-19T15:17:57;8.07;;;5.40;;
6013;SDS011;3035;49.928;8.410;2023-01-19T15:20:26;10.40;;;5.33;;
6013;SDS011;3035;49.928;8.410;2023-01-19T15:22:54;8.40;;;5.47;;
6013;SDS011;3035;49.928;8.410;2023-01-19T15:25:23;13.33;;;6.07;;
6013;SDS011;3035;49.928;8.410;2023-01-19T15:27:52;7.77;;;5.33;;
6013;SDS011;3035;49.928;8.410;2023-01-19T15:30:22;16.03;;;7.50;;
6013;SDS011;3035;49.928;8.410;2023-01-19T15:32:49;8.47;;;5.40;;
6013;SDS011;3035;49.928;8.410;2023-01-19T15:35:18;9.53;;;5.37;;
6013;SDS011;3035;49.928;8.410;2023-01-19T15:37:46;15.20;;;6.57;;
6013;SDS011;3035;49.928;8.410;2023-01-19T15:40:15;16.87;;;8.23;;
6013;SDS011;3035;49.928;8.410;2023-01-19T15:42:44;8.90;;;4.80;;
6013;SDS011;3035;49.928;8.410;2023-01-19T15:48:03;7.63;;;4.10;;
6013;SDS011;3035;49.928;8.410;2023-01-19T15:50:30;7.10;;;3.83;;
6013;SDS011;3035;49.928;8.410;2023-01-19T15:52:58;5.30;;;3.40;;
6013;SDS011;3035;49.928;8.410;2023-01-19T15:55:26;5.43;;;3.73;;
6013;SDS011;3035;49.928;8.410;2023-01-19T15:57:55;6.03;;;4.00;;
6013;SDS011;3035;49.928;8.410;2023-01-19T16:00:24;7.20;;;4.50;;
6013;SDS011;3035;49.928;8.410;2023-01-19T16:02:52;7.13;;;4.47;;
6013;SDS011;3035;49.928;8.410;2023-01-19T16:05:20;6.63;;;5.10;;
6013;SDS011;3035;49.928;8.410;2023-01-19T16:07:48;5.37;;;4.70;;
6013;SDS011;3035;49.928;8.410;2023-01-19T16:10:17;7.50;;;4.17;;
6013;SDS011;3035;49.928;8.410;2023-01-19T16:12:45;10.13;;;3.87;;